createdAt,value
2022-10-05T00:01:52.518Z,12.40
2022-10-05T00:04:22.100Z,12.40
2022-10-05T00:07:04.240Z,12.30
2022-10-05T00:09:32.486Z,12.30
2022-10-05T00:11:59.502Z,12.30
2022-10-05T00:14:32.001Z,12.30
2022-10-05T00:16:59.130Z,12.30
2022-10-05T00:19:32.838Z,12.20
2022-10-05T00:22:01.352Z,13.00
2022-10-05T00:24:28.426Z,12.20
2022-10-05T00:26:58.104Z,12.10
2022-10-05T00:29:25.197Z,12.10
2022-10-05T00:31:52.034Z,12.10
2022-10-05T00:34:18.984Z,12.00
2022-10-05T00:36:46.280Z,12.00
2022-10-05T00:39:13.450Z,11.90
2022-10-05T00:41:48.413Z,12.00
2022-10-05T00:44:26.699Z,12.00
2022-10-05T00:47:29.276Z,11.90
2022-10-05T00:50:18.182Z,11.90
2022-10-05T00:53:12.366Z,11.80
2022-10-05T00:56:02.267Z,11.80
2022-10-05T00:59:16.375Z,11.80
2022-10-05T01:02:03.531Z,11.70
2022-10-05T01:04:42.482Z,11.70
2022-10-05T01:07:47.344Z,11.70
2022-10-05T01:10:37.237Z,11.80
2022-10-05T01:13:04.111Z,12.00
2022-10-05T01:15:54.378Z,12.00
2022-10-05T01:18:44.658Z,12.00
2022-10-05T01:21:22.309Z,12.00
2022-10-05T01:24:01.547Z,12.00
2022-10-05T01:26:47.143Z,11.90
2022-10-05T01:29:32.888Z,11.90
2022-10-05T01:32:11.674Z,11.80
2022-10-05T01:34:41.405Z,11.70
2022-10-05T01:37:27.071Z,11.60
2022-10-05T01:39:59.917Z,11.60
2022-10-05T01:42:45.489Z,11.50
2022-10-05T01:45:44.353Z,11.50
2022-10-05T01:48:37.643Z,11.40
2022-10-05T01:51:16.348Z,11.40
2022-10-05T01:53:55.108Z,11.40
2022-10-05T01:56:48.835Z,11.40
2022-10-05T01:59:36.059Z,11.40
2022-10-05T02:02:08.008Z,11.30
2022-10-05T02:05:01.424Z,11.30
2022-10-05T02:07:41.658Z,11.30
2022-10-05T02:10:26.458Z,11.30
2022-10-05T02:13:01.792Z,11.30
2022-10-05T02:15:42.457Z,11.30
2022-10-05T02:18:17.684Z,11.20
2022-10-05T02:20:44.878Z,11.20
2022-10-05T02:23:21.077Z,11.10
2022-10-05T02:25:49.852Z,11.10
2022-10-05T02:28:19.305Z,11.10
2022-10-05T02:30:53.050Z,11.10
2022-10-05T02:33:31.436Z,11.00
2022-10-05T02:36:07.618Z,11.00
2022-10-05T02:38:34.348Z,10.90
2022-10-05T02:41:36.407Z,10.90
2022-10-05T02:44:19.381Z,10.90
2022-10-05T02:47:21.831Z,10.90
2022-10-05T02:50:03.854Z,10.90
2022-10-05T02:52:49.250Z,10.90
2022-10-05T02:55:30.971Z,11.00
2022-10-05T02:58:08.362Z,11.00
2022-10-05T03:01:27.479Z,11.10
2022-10-05T03:04:10.184Z,11.00
2022-10-05T03:06:46.106Z,11.00
2022-10-05T03:09:16.290Z,11.00
2022-10-05T03:12:07.265Z,11.00
2022-10-05T03:14:46.498Z,11.00
2022-10-05T03:17:36.335Z,11.00
2022-10-05T03:20:19.212Z,11.10
2022-10-05T03:22:57.147Z,11.10
2022-10-05T03:25:45.911Z,11.10
2022-10-05T03:28:27.105Z,11.10
2022-10-05T03:31:01.465Z,11.10
2022-10-05T03:33:39.506Z,11.10
2022-10-05T03:36:17.997Z,11.10
2022-10-05T03:38:58.184Z,11.10
2022-10-05T03:42:04.006Z,11.00
2022-10-05T03:44:39.353Z,11.00
2022-10-05T03:47:35.268Z,11.00
2022-10-05T03:50:23.606Z,10.90
2022-10-05T03:52:58.291Z,10.90
2022-10-05T03:55:39.801Z,10.90
2022-10-05T03:58:16.311Z,10.90
2022-10-05T04:00:45.572Z,10.90
2022-10-05T04:03:44.790Z,10.90
2022-10-05T04:06:13.496Z,10.90
2022-10-05T04:08:54.429Z,10.90
2022-10-05T04:11:31.823Z,10.90
2022-10-05T04:14:06.905Z,10.90
2022-10-05T04:16:45.460Z,10.90
2022-10-05T04:19:25.086Z,10.90
2022-10-05T04:22:25.866Z,10.90
2022-10-05T04:25:00.994Z,11.00
2022-10-05T04:27:32.295Z,11.00
2022-10-05T04:30:19.988Z,10.90
2022-10-05T04:32:55.438Z,10.90
2022-10-05T04:35:38.208Z,10.90
2022-10-05T04:38:23.616Z,10.90
2022-10-05T04:41:28.946Z,10.90
2022-10-05T04:44:04.548Z,10.90
2022-10-05T04:46:46.509Z,10.90
2022-10-05T04:49:19.453Z,10.90
2022-10-05T04:51:58.605Z,10.80
2022-10-05T04:54:42.627Z,10.80
2022-10-05T04:57:42.072Z,10.80
2022-10-05T05:00:28.336Z,10.80
2022-10-05T05:03:11.688Z,10.80
2022-10-05T05:06:15.840Z,10.80
2022-10-05T05:08:51.910Z,10.80
2022-10-05T05:11:33.665Z,10.80
2022-10-05T05:14:14.294Z,10.80
2022-10-05T05:16:46.167Z,10.80
2022-10-05T05:19:28.818Z,10.80
2022-10-05T05:22:03.817Z,10.80
2022-10-05T05:24:33.649Z,10.80
2022-10-05T05:27:19.192Z,10.80
2022-10-05T05:30:04.812Z,10.80
2022-10-05T05:32:40.432Z,10.70
2022-10-05T05:35:52.805Z,10.70
2022-10-05T05:38:57.134Z,10.60
2022-10-05T05:41:36.597Z,10.60
2022-10-05T05:44:21.333Z,10.60
2022-10-05T05:47:04.130Z,10.60
2022-10-05T05:49:36.820Z,10.60
2022-10-05T05:52:10.738Z,10.60
2022-10-05T05:54:45.365Z,10.60
2022-10-05T05:57:39.090Z,10.60
2022-10-05T06:00:06.080Z,10.70
2022-10-05T06:03:13.465Z,10.70
2022-10-05T06:06:02.113Z,10.80
2022-10-05T06:08:47.924Z,10.80
2022-10-05T06:11:31.097Z,10.90
2022-10-05T06:14:05.377Z,10.90
2022-10-05T06:16:37.426Z,11.00
2022-10-05T06:19:09.002Z,11.10
2022-10-05T06:22:02.102Z,11.10
2022-10-05T06:24:50.363Z,11.20
2022-10-05T06:27:22.867Z,11.40
2022-10-05T06:30:09.617Z,11.60
2022-10-05T06:33:16.658Z,11.70
2022-10-05T06:36:14.108Z,12.00
2022-10-05T06:39:04.596Z,12.20
2022-10-05T06:41:38.470Z,12.30
2022-10-05T06:44:34.352Z,12.40
2022-10-05T06:47:06.912Z,12.50
2022-10-05T06:49:40.588Z,12.60
2022-10-05T06:52:26.417Z,12.70
2022-10-05T06:55:16.277Z,12.80
2022-10-05T06:58:15.248Z,13.00
2022-10-05T07:00:56.483Z,13.10
2022-10-05T07:04:00.467Z,13.30
2022-10-05T07:06:39.352Z,13.40
2022-10-05T07:09:31.021Z,13.60
2022-10-05T07:12:27.646Z,13.70
2022-10-05T07:15:25.612Z,13.80
2022-10-05T07:18:30.356Z,13.90
2022-10-05T07:21:24.541Z,14.10
2022-10-05T07:32:33.977Z,15.70
2022-10-05T07:35:55.905Z,14.80
2022-10-05T07:38:33.020Z,14.90
2022-10-05T07:41:23.859Z,15.00
2022-10-05T07:44:08.856Z,15.10
2022-10-05T07:47:10.221Z,15.20
2022-10-05T07:49:44.864Z,15.30
2022-10-05T07:52:13.297Z,15.40
2022-10-05T07:55:04.111Z,15.50
2022-10-05T07:57:38.273Z,15.60
2022-10-05T08:00:06.501Z,15.70
2022-10-05T08:02:54.005Z,15.80
2022-10-05T08:05:29.630Z,15.90
2022-10-05T08:08:20.456Z,16.00
2022-10-05T08:11:15.027Z,16.20
2022-10-05T08:14:03.764Z,16.30
2022-10-05T08:16:35.133Z,16.50
2022-10-05T08:19:48.187Z,16.60
2022-10-05T08:22:29.484Z,16.70
2022-10-05T08:25:03.615Z,16.90
2022-10-05T08:27:48.857Z,17.00
2022-10-05T08:30:16.619Z,17.00
2022-10-05T08:32:58.856Z,17.10
2022-10-05T08:35:43.716Z,17.20
2022-10-05T08:38:16.674Z,17.30
2022-10-05T08:40:51.592Z,17.40
2022-10-05T08:43:40.051Z,17.50
2022-10-05T08:46:14.993Z,17.50
2022-10-05T08:49:05.861Z,17.60
2022-10-05T08:52:30.047Z,17.70
2022-10-05T08:55:15.013Z,17.70
2022-10-05T08:57:46.591Z,17.90
2022-10-05T09:00:20.984Z,17.90
2022-10-05T09:03:20.344Z,18.00
2022-10-05T09:06:06.186Z,18.10
2022-10-05T09:09:05.267Z,18.20
2022-10-05T09:11:38.949Z,18.20
2022-10-05T09:15:20.938Z,18.30
2022-10-05T09:18:20.337Z,18.40
2022-10-05T09:20:55.401Z,18.50
2022-10-05T09:23:37.657Z,18.50
2022-10-05T09:30:36.775Z,18.70
2022-10-05T09:33:41.085Z,18.90
2022-10-05T09:36:21.342Z,19.10
2022-10-05T09:39:13.064Z,19.30
2022-10-05T09:41:43.036Z,19.40
2022-10-05T09:44:37.465Z,19.50
2022-10-05T09:47:25.802Z,19.50
2022-10-05T09:50:27.396Z,19.70
2022-10-05T09:53:15.701Z,19.80
2022-10-05T09:55:45.940Z,19.80
2022-10-05T09:58:28.411Z,19.90
2022-10-05T10:01:15.481Z,19.90
2022-10-05T10:03:45.997Z,19.90
2022-10-05T10:06:37.417Z,19.80
2022-10-05T10:09:10.102Z,19.80
2022-10-05T10:11:50.840Z,19.70
2022-10-05T10:15:03.013Z,19.70
2022-10-05T10:18:04.121Z,19.60
2022-10-05T10:20:31.050Z,19.60
2022-10-05T10:23:04.607Z,19.70
2022-10-05T10:25:53.252Z,19.70
2022-10-05T10:28:29.403Z,19.80
2022-10-05T10:31:01.463Z,19.90
2022-10-05T10:33:51.637Z,19.80
2022-10-05T10:36:43.146Z,19.90
2022-10-05T10:39:29.584Z,19.80
2022-10-05T10:42:30.777Z,19.80
2022-10-05T10:45:33.566Z,19.70
2022-10-05T10:48:31.692Z,19.70
2022-10-05T10:51:10.180Z,19.70
2022-10-05T10:54:03.554Z,19.80
2022-10-05T10:56:50.027Z,19.80
2022-10-05T10:59:54.695Z,19.80
2022-10-05T11:02:24.441Z,19.80
2022-10-05T11:05:18.930Z,19.80
2022-10-05T11:07:58.218Z,19.80
2022-10-05T11:11:00.518Z,19.90
2022-10-05T11:14:02.867Z,19.80
2022-10-05T11:16:48.075Z,19.90
2022-10-05T11:19:21.724Z,19.90
2022-10-05T11:22:13.839Z,20.00
2022-10-05T11:24:58.592Z,20.00
2022-10-05T11:27:37.678Z,20.00
2022-10-05T11:30:29.888Z,20.00
2022-10-05T11:33:27.727Z,20.10
2022-10-05T11:36:13.123Z,20.20
2022-10-05T11:39:33.530Z,20.20
2022-10-05T11:42:23.932Z,20.30
2022-10-05T11:45:21.738Z,20.30
2022-10-05T11:48:07.288Z,20.40
2022-10-05T11:51:04.761Z,20.40
2022-10-05T11:54:12.429Z,20.50
2022-10-05T11:56:42.335Z,20.60
2022-10-05T11:59:16.252Z,20.60
2022-10-05T12:02:05.538Z,20.60
2022-10-05T12:04:51.076Z,20.60
2022-10-05T12:07:43.821Z,20.70
2022-10-05T12:11:04.134Z,20.70
2022-10-05T12:13:55.026Z,20.70
2022-10-05T12:16:54.095Z,20.70
2022-10-05T12:19:29.762Z,20.70
2022-10-05T12:22:24.617Z,20.70
2022-10-05T12:25:17.728Z,20.70
2022-10-05T12:27:46.608Z,20.70
2022-10-05T12:30:26.655Z,20.60
2022-10-05T12:33:01.590Z,20.60
2022-10-05T12:36:21.265Z,20.70
2022-10-05T12:39:08.405Z,20.70
2022-10-05T12:42:04.272Z,20.80
2022-10-05T12:44:59.441Z,20.80
2022-10-05T12:47:44.891Z,20.90
2022-10-05T12:50:17.705Z,20.90
2022-10-05T12:53:14.742Z,21.00
2022-10-05T12:56:12.558Z,21.00
2022-10-05T12:59:00.416Z,21.00
2022-10-05T13:01:36.175Z,21.10
2022-10-05T13:04:24.835Z,21.10
2022-10-05T13:07:11.785Z,21.10
2022-10-05T13:09:48.832Z,21.10
2022-10-05T13:12:25.959Z,21.10
2022-10-05T13:15:10.729Z,21.10
2022-10-05T13:17:39.342Z,21.10
2022-10-05T13:20:21.557Z,21.20
2022-10-05T13:22:52.590Z,21.20
2022-10-05T13:25:32.571Z,21.20
2022-10-05T13:28:11.101Z,21.30
2022-10-05T13:30:40.725Z,21.30
2022-10-05T13:33:20.820Z,21.30
2022-10-05T13:36:09.316Z,21.30
2022-10-05T13:39:11.369Z,21.30
2022-10-05T13:42:00.548Z,21.20
2022-10-05T13:44:44.747Z,21.20
2022-10-05T13:47:21.747Z,21.10
2022-10-05T13:49:57.923Z,21.10
2022-10-05T13:52:54.105Z,21.10
2022-10-05T13:55:41.223Z,21.10
2022-10-05T13:58:15.350Z,21.00
2022-10-05T14:00:54.941Z,21.00
2022-10-05T14:03:34.939Z,20.90
2022-10-05T14:06:06.299Z,21.10
2022-10-05T14:08:35.207Z,21.10
2022-10-05T14:11:26.707Z,21.10
2022-10-05T14:14:13.672Z,21.20
2022-10-05T14:16:51.338Z,21.20
2022-10-05T14:19:21.910Z,21.10
2022-10-05T14:21:55.613Z,21.20
2022-10-05T14:24:46.380Z,21.10
2022-10-05T14:27:31.212Z,21.20
2022-10-05T14:30:01.769Z,21.20
2022-10-05T14:32:33.702Z,21.20
2022-10-05T14:35:05.191Z,21.20
2022-10-05T14:37:43.284Z,21.20
2022-10-05T14:40:27.167Z,21.20
2022-10-05T14:42:54.398Z,21.20
2022-10-05T14:45:25.063Z,21.20
2022-10-05T14:48:06.108Z,21.20
2022-10-05T14:50:33.302Z,21.20
2022-10-05T14:53:16.937Z,21.20
2022-10-05T14:56:01.957Z,21.20
2022-10-05T14:59:06.957Z,21.10
2022-10-05T15:01:36.661Z,21.20
2022-10-05T15:04:36.117Z,21.20
2022-10-05T15:07:22.079Z,21.10
2022-10-05T15:09:57.811Z,21.10
2022-10-05T15:12:38.904Z,21.10
2022-10-05T15:15:25.624Z,21.10
2022-10-05T15:17:58.170Z,21.00
2022-10-05T15:20:49.591Z,21.00
2022-10-05T15:23:31.499Z,21.00
2022-10-05T15:26:12.433Z,20.90
2022-10-05T15:28:57.466Z,20.80
2022-10-05T15:31:36.845Z,20.80
2022-10-05T15:34:31.283Z,20.80
2022-10-05T15:37:24.967Z,20.70
2022-10-05T15:39:57.105Z,20.70
2022-10-05T15:42:33.722Z,20.70
2022-10-05T15:45:20.239Z,20.60
2022-10-05T15:47:59.974Z,20.60
2022-10-05T15:50:50.807Z,20.50
2022-10-05T15:53:23.751Z,20.40
2022-10-05T15:55:54.752Z,20.40
2022-10-05T15:58:51.644Z,20.30
2022-10-05T16:01:23.265Z,20.30
2022-10-05T16:03:55.765Z,20.20
2022-10-05T16:06:59.451Z,20.10
2022-10-05T16:09:58.639Z,20.10
2022-10-05T16:12:28.355Z,20.00
2022-10-05T16:15:30.094Z,19.90
2022-10-05T16:18:30.310Z,19.90
2022-10-05T16:21:20.861Z,19.80
2022-10-05T16:24:15.752Z,19.70
2022-10-05T16:27:04.569Z,19.60
2022-10-05T16:30:01.120Z,19.60
2022-10-05T16:32:33.325Z,19.50
2022-10-05T16:35:10.760Z,19.40
2022-10-05T16:38:16.420Z,19.30
2022-10-05T16:40:59.707Z,19.10
2022-10-05T16:43:44.950Z,19.00
2022-10-05T16:46:14.856Z,18.90
2022-10-05T16:49:04.275Z,18.70
2022-10-05T16:52:01.924Z,18.60
2022-10-05T16:54:37.264Z,18.50
2022-10-05T16:57:20.166Z,18.40
2022-10-05T17:00:13.467Z,18.40
2022-10-05T17:02:55.449Z,18.30
2022-10-05T17:05:34.954Z,18.20
2022-10-05T17:08:36.628Z,18.20
2022-10-05T17:11:21.810Z,18.10
2022-10-05T17:14:38.893Z,18.00
2022-10-05T17:17:27.631Z,18.00
2022-10-05T17:20:23.588Z,17.90
2022-10-05T17:23:22.739Z,17.80
2022-10-05T17:26:19.357Z,17.80
2022-10-05T17:28:52.098Z,17.70
2022-10-05T17:31:21.787Z,17.70
2022-10-05T17:34:16.587Z,17.70
2022-10-05T17:36:50.024Z,17.60
2022-10-05T17:39:18.841Z,17.60
2022-10-05T17:41:46.897Z,17.60
2022-10-05T17:44:13.637Z,17.60
2022-10-05T17:46:54.056Z,17.50
2022-10-05T17:50:13.999Z,17.50
2022-10-05T17:53:02.266Z,17.50
2022-10-05T17:55:38.321Z,17.40
2022-10-05T17:58:23.873Z,17.40
2022-10-05T18:01:17.056Z,17.30
2022-10-05T18:03:52.665Z,17.40
2022-10-05T18:06:25.569Z,17.30
2022-10-05T18:09:16.872Z,17.30
2022-10-05T18:11:45.176Z,17.30
2022-10-05T18:14:19.710Z,17.30
2022-10-05T18:16:56.746Z,17.30
2022-10-05T18:19:23.819Z,17.20
2022-10-05T18:22:23.101Z,17.10
2022-10-05T18:25:04.068Z,17.10
2022-10-05T18:27:39.682Z,17.10
2022-10-05T18:30:21.385Z,17.00
2022-10-05T18:33:05.897Z,17.00
2022-10-05T18:36:03.658Z,17.00
2022-10-05T18:38:43.381Z,17.00
2022-10-05T18:41:22.612Z,16.90
2022-10-05T18:43:58.341Z,16.90
2022-10-05T18:46:47.121Z,16.90
2022-10-05T18:49:52.645Z,16.90
2022-10-05T18:52:31.351Z,16.80
2022-10-05T18:55:32.821Z,16.80
2022-10-05T18:58:21.405Z,16.80
2022-10-05T19:01:27.986Z,16.80
2022-10-05T19:04:08.786Z,16.80
2022-10-05T19:07:00.015Z,16.80
2022-10-05T19:09:29.834Z,16.80
2022-10-05T19:12:08.430Z,16.80
2022-10-05T19:14:47.103Z,16.80
2022-10-05T19:17:26.965Z,16.80
2022-10-05T19:20:18.912Z,16.80
2022-10-05T19:23:12.072Z,16.70
2022-10-05T19:26:03.599Z,16.70
2022-10-05T19:28:35.501Z,16.70
2022-10-05T19:31:14.493Z,16.70
2022-10-05T19:34:16.309Z,16.70
2022-10-05T19:37:03.503Z,16.60
2022-10-05T19:39:38.503Z,16.60
2022-10-05T19:42:44.409Z,16.60
2022-10-05T19:45:21.823Z,16.60
2022-10-05T19:47:59.468Z,16.60
2022-10-05T19:50:29.423Z,16.60
2022-10-05T19:53:24.169Z,16.60
2022-10-05T19:55:51.507Z,16.70
2022-10-05T19:58:28.605Z,16.60
2022-10-05T20:00:57.012Z,16.70
2022-10-05T20:03:27.523Z,16.70
2022-10-05T20:05:56.239Z,16.70
2022-10-05T20:08:26.923Z,16.70
2022-10-05T20:11:14.112Z,16.70
2022-10-05T20:14:10.202Z,16.70
2022-10-05T20:16:55.505Z,16.70
2022-10-05T20:19:50.110Z,16.90
2022-10-05T20:22:30.739Z,16.70
2022-10-05T20:25:01.193Z,16.70
2022-10-05T20:27:35.700Z,16.70
2022-10-05T20:30:02.503Z,16.70
2022-10-05T20:32:30.794Z,16.70
2022-10-05T20:34:57.696Z,16.60
2022-10-05T20:37:24.794Z,16.60
2022-10-05T20:39:52.011Z,16.60
2022-10-05T20:42:20.444Z,16.60
2022-10-05T20:44:47.363Z,16.60
2022-10-05T20:47:14.619Z,16.70
2022-10-05T20:49:41.514Z,16.70
2022-10-05T20:52:12.165Z,16.70
2022-10-05T20:54:39.464Z,16.70
2022-10-05T20:57:06.554Z,17.00
2022-10-05T20:59:34.163Z,16.80
2022-10-05T21:02:01.754Z,16.90
2022-10-05T21:04:40.049Z,16.90
2022-10-05T21:07:08.199Z,17.00
2022-10-05T21:09:37.939Z,17.10
2022-10-05T21:12:04.814Z,17.00
2022-10-05T21:14:34.183Z,17.10
2022-10-05T21:17:01.996Z,17.10
2022-10-05T21:19:29.517Z,17.20
2022-10-05T21:21:59.644Z,17.20
2022-10-05T21:24:26.480Z,17.20
2022-10-05T21:26:57.659Z,17.20
2022-10-05T21:29:24.517Z,17.20
2022-10-05T21:31:51.295Z,17.20
2022-10-05T21:34:18.132Z,17.20
2022-10-05T21:36:44.868Z,17.30
2022-10-05T21:39:11.599Z,17.20
2022-10-05T21:41:38.374Z,17.20
2022-10-05T21:44:06.685Z,17.20
2022-10-05T21:46:35.429Z,17.20
2022-10-05T21:49:02.320Z,17.20
2022-10-05T21:51:29.131Z,17.20
2022-10-05T21:53:59.231Z,17.20
2022-10-05T21:56:30.645Z,17.20
2022-10-05T21:58:57.912Z,17.20
2022-10-05T22:01:24.830Z,17.40
2022-10-05T22:03:51.743Z,17.30
2022-10-05T22:06:18.750Z,17.30
2022-10-05T22:08:45.458Z,17.40
2022-10-05T22:11:15.639Z,17.20
2022-10-05T22:13:49.555Z,17.30
2022-10-05T22:16:18.487Z,17.20
2022-10-05T22:18:45.492Z,17.20
2022-10-05T22:21:13.872Z,17.10
2022-10-05T22:23:42.063Z,17.20
2022-10-05T22:26:10.662Z,17.10
2022-10-05T22:28:38.087Z,17.10
2022-10-05T22:31:07.078Z,17.20
2022-10-05T22:33:34.346Z,17.10
2022-10-05T22:36:01.425Z,17.10
2022-10-05T22:38:30.318Z,17.10
2022-10-05T22:40:57.452Z,17.20
2022-10-05T22:43:26.926Z,17.10
2022-10-05T22:45:54.231Z,17.10
2022-10-05T22:48:21.377Z,17.00
2022-10-05T22:50:49.187Z,17.00
2022-10-05T22:53:16.136Z,17.20
2022-10-05T22:55:43.014Z,17.00
2022-10-05T22:58:09.853Z,17.00
2022-10-05T23:00:57.095Z,17.10
2022-10-05T23:03:23.542Z,17.00
2022-10-05T23:05:57.014Z,17.00
2022-10-05T23:08:24.285Z,17.00
2022-10-05T23:10:52.523Z,17.00
2022-10-05T23:13:19.479Z,17.00
2022-10-05T23:15:46.265Z,17.00
2022-10-05T23:18:13.060Z,17.00
2022-10-05T23:20:40.210Z,17.00
2022-10-05T23:23:06.999Z,17.00
2022-10-05T23:25:34.429Z,17.00
2022-10-05T23:28:02.653Z,17.00
2022-10-05T23:30:29.559Z,17.00
2022-10-05T23:32:56.336Z,17.00
2022-10-05T23:35:23.308Z,17.00
2022-10-05T23:37:50.040Z,17.00
2022-10-05T23:40:16.854Z,17.00
2022-10-05T23:42:43.872Z,16.90
2022-10-05T23:45:11.678Z,17.00
2022-10-05T23:47:39.413Z,17.00
2022-10-05T23:50:07.345Z,16.90
2022-10-05T23:52:35.055Z,16.90
2022-10-05T23:55:04.308Z,16.90
2022-10-05T23:57:31.463Z,17.00
2022-10-05T23:59:58.230Z,16.90
